Terminal Aerodrome Forecast
Issued by NWS

Home | Current Version | Previous Version | Text Only | Print | Product List | Glossary On
Versions: 1 2 3 4 5 6 7 8 9 10 11 12 13 14 15 16 17 18 19 20 21 22 23 24 25
000
FTUS46 KMFR 030520
TAFOTH
TAF
KOTH 030520Z 0306/0406 VRB03KT P6SM OVC012
     FM031000 VRB03KT 5SM BR OVC008
     FM031700 34008KT P6SM BKN012 BKN090
     FM031900 35012G20KT P6SM SCT015 BKN090
     FM040300 36008KT P6SM OVC015
     FM040500 VRB03KT P6SM OVC012=

USA.gov is the U.S. government's official web portal to all federal, state and local government web resources and services.